Terminal Aerodrome Forecast
Issued by NWS Upton, NY

Home | Current Version | Previous Version | Text Only | Print | Product List | Glossary On
Versions: 1 2 3 4 5 6 7 8 9 10 11 12 13 14 15 16 17 18 19 20 21 22 23 24 25 26 27 28 29 30 31 32 33 34 35
000
FTUS41 KOKX 270800 AAA
TAFEWR
TAF AMD
KEWR 270836Z 2709/2812 36020G30KT 1SM -SN OVC008
      TEMPO 2709/2711 1/2SM SN FZFG BLSN VV005
     FM271500 34022G33KT 1SM -SN BLSN OVC008
     FM272100 34018G30KT 2SM -SN BLSN OVC020
     FM280100 33015G26KT 2SM -SHSN OVC035
     FM280400 32013G21KT P6SM SCT040 SCT100=

USA.gov is the U.S. government's official web portal to all federal, state and local government web resources and services.